createdAt,value
2023-02-21T00:02:49.671Z,6.45
2023-02-21T00:05:53.730Z,6.37
2023-02-21T00:08:57.965Z,6.18
2023-02-21T00:12:02.877Z,6.13
2023-02-21T00:15:06.784Z,6.07
2023-02-21T00:18:11.222Z,6.30
2023-02-21T00:21:15.372Z,6.25
2023-02-21T00:24:19.542Z,6.57
2023-02-21T00:27:23.842Z,7.40
2023-02-21T00:30:28.486Z,8.05
2023-02-21T00:33:32.288Z,7.13
2023-02-21T00:36:36.293Z,7.97
2023-02-21T00:39:40.090Z,6.33
2023-02-21T00:42:44.033Z,7.20
2023-02-21T00:45:47.924Z,6.93
2023-02-21T00:48:51.900Z,6.40
2023-02-21T00:51:55.846Z,6.33
2023-02-21T00:54:59.491Z,6.40
2023-02-21T00:58:03.885Z,5.93
2023-02-21T01:01:07.620Z,5.72
2023-02-21T01:04:11.536Z,6.17
2023-02-21T01:07:15.263Z,6.60
2023-02-21T01:10:19.229Z,5.90
2023-02-21T01:13:23.557Z,6.60
2023-02-21T01:16:27.368Z,6.53
2023-02-21T01:19:31.371Z,5.23
2023-02-21T01:22:35.451Z,7.17
2023-02-21T01:25:39.326Z,7.00
2023-02-21T01:28:42.999Z,6.67
2023-02-21T01:31:46.819Z,6.50
2023-02-21T01:34:50.590Z,5.90
2023-02-21T01:37:54.457Z,5.60
2023-02-21T01:40:58.900Z,5.97
2023-02-21T01:44:24.994Z,6.28
2023-02-21T01:47:30.443Z,5.27
2023-02-21T01:50:42.453Z,5.10
2023-02-21T01:53:46.525Z,5.60
2023-02-21T01:56:51.114Z,5.80
2023-02-21T01:59:55.539Z,6.22
2023-02-21T02:03:11.103Z,7.32
2023-02-21T02:09:39.913Z,5.75
2023-02-21T02:12:38.348Z,6.03
2023-02-21T02:15:49.250Z,5.60
2023-02-21T02:18:51.304Z,5.73
2023-02-21T02:22:15.537Z,6.13
2023-02-21T02:25:44.244Z,5.57
2023-02-21T02:28:38.803Z,4.97
2023-02-21T02:32:02.132Z,5.03
2023-02-21T02:35:22.292Z,5.43
2023-02-21T02:38:33.471Z,6.17
2023-02-21T02:41:48.004Z,6.17
2023-02-21T02:44:40.185Z,6.20
2023-02-21T02:47:36.748Z,5.87
2023-02-21T02:50:24.230Z,6.40
2023-02-21T02:53:09.347Z,5.57
2023-02-21T02:56:01.804Z,5.63
2023-02-21T02:58:55.132Z,6.33
2023-02-21T03:01:46.945Z,6.27
2023-02-21T03:04:41.497Z,6.40
2023-02-21T03:07:36.604Z,6.28
2023-02-21T03:10:31.571Z,6.60
2023-02-21T03:13:49.597Z,6.33
2023-02-21T03:16:47.781Z,6.17
2023-02-21T03:19:37.821Z,5.40
2023-02-21T03:22:26.753Z,6.57
2023-02-21T03:25:15.131Z,5.67
2023-02-21T03:28:01.756Z,6.27
2023-02-21T03:30:51.674Z,6.50
2023-02-21T03:33:36.960Z,6.40
2023-02-21T03:36:23.203Z,6.50
2023-02-21T03:39:08.536Z,5.30
2023-02-21T03:41:54.269Z,5.27
2023-02-21T03:44:39.445Z,5.90
2023-02-21T03:47:25.096Z,5.93
2023-02-21T03:50:10.771Z,5.73
2023-02-21T03:52:56.175Z,6.10
2023-02-21T03:55:41.455Z,5.60
2023-02-21T03:58:27.041Z,6.33
2023-02-21T04:01:12.999Z,5.40
2023-02-21T04:03:58.391Z,5.67
2023-02-21T04:06:43.857Z,6.00
2023-02-21T04:09:29.407Z,5.90
2023-02-21T04:12:15.324Z,5.83
2023-02-21T04:15:00.976Z,6.20
2023-02-21T04:17:46.508Z,6.93
2023-02-21T04:20:32.069Z,5.77
2023-02-21T04:23:19.655Z,6.17
2023-02-21T04:26:05.434Z,5.80
2023-02-21T04:28:52.232Z,5.17
2023-02-21T04:31:37.940Z,5.23
2023-02-21T04:34:23.560Z,5.93
2023-02-21T04:37:09.273Z,5.50
2023-02-21T04:39:54.445Z,5.20
2023-02-21T04:42:40.140Z,5.60
2023-02-21T04:45:25.518Z,5.80
2023-02-21T04:48:11.162Z,5.97
2023-02-21T04:51:01.526Z,5.50
2023-02-21T04:53:53.821Z,5.60
2023-02-21T04:56:39.855Z,5.30
2023-02-21T04:59:25.517Z,6.47
2023-02-21T05:02:11.251Z,5.70
2023-02-21T05:04:56.602Z,5.50
2023-02-21T05:07:42.925Z,5.47
2023-02-21T05:10:43.483Z,6.40
2023-02-21T05:13:30.367Z,5.43
2023-02-21T05:16:15.863Z,5.70
2023-02-21T05:19:02.675Z,6.20
2023-02-21T05:21:48.246Z,5.43
2023-02-21T05:24:35.359Z,5.63
2023-02-21T05:27:22.450Z,5.57
2023-02-21T05:30:08.621Z,5.87
2023-02-21T05:32:53.967Z,5.90
2023-02-21T05:35:39.501Z,5.97
2023-02-21T05:38:26.107Z,6.30
2023-02-21T05:41:11.512Z,5.93
2023-02-21T05:43:56.683Z,6.00
2023-02-21T05:46:42.568Z,5.77
2023-02-21T05:49:28.217Z,5.53
2023-02-21T05:52:15.847Z,5.00
2023-02-21T05:55:01.464Z,5.97
2023-02-21T05:57:46.966Z,6.47
2023-02-21T06:00:32.387Z,5.70
2023-02-21T06:03:17.654Z,5.50
2023-02-21T06:06:03.620Z,5.33
2023-02-21T06:08:49.922Z,5.40
2023-02-21T06:11:37.783Z,5.47
2023-02-21T06:14:24.514Z,6.00
2023-02-21T06:17:10.108Z,5.80
2023-02-21T06:19:58.717Z,6.10
2023-02-21T06:22:44.641Z,5.90
2023-02-21T06:25:30.201Z,5.47
2023-02-21T06:28:15.748Z,6.03
2023-02-21T06:31:01.131Z,5.23
2023-02-21T06:33:48.762Z,6.00
2023-02-21T06:36:35.703Z,5.47
2023-02-21T06:39:22.061Z,5.63
2023-02-21T06:42:08.066Z,5.27
2023-02-21T06:44:53.432Z,5.77
2023-02-21T06:47:39.083Z,5.37
2023-02-21T06:50:24.589Z,5.57
2023-02-21T06:53:10.642Z,6.17
2023-02-21T06:55:56.332Z,5.67
2023-02-21T06:58:41.836Z,5.17
2023-02-21T07:01:29.158Z,6.20
2023-02-21T07:04:14.781Z,5.70
2023-02-21T07:07:00.327Z,5.47
2023-02-21T07:09:46.011Z,6.70
2023-02-21T07:12:31.606Z,6.10
2023-02-21T07:15:17.267Z,5.90
2023-02-21T07:18:02.695Z,6.73
2023-02-21T07:20:47.955Z,5.73
2023-02-21T07:23:33.685Z,5.97
2023-02-21T07:26:19.164Z,5.80
2023-02-21T07:29:06.342Z,5.40
2023-02-21T07:31:52.211Z,5.50
2023-02-21T07:34:37.406Z,5.40
2023-02-21T07:37:24.279Z,5.50
2023-02-21T07:40:10.039Z,5.13
2023-02-21T07:42:55.800Z,5.50
2023-02-21T07:45:41.204Z,5.07
2023-02-21T07:48:26.791Z,5.33
2023-02-21T07:51:12.182Z,5.50
2023-02-21T07:54:00.296Z,5.70
2023-02-21T07:56:47.008Z,5.70
2023-02-21T07:59:32.660Z,5.17
2023-02-21T08:02:18.040Z,5.77
2023-02-21T08:05:05.846Z,5.40
2023-02-21T08:07:51.940Z,5.43
2023-02-21T08:10:37.978Z,5.80
2023-02-21T08:13:23.571Z,5.73
2023-02-21T08:16:08.984Z,5.77
2023-02-21T08:18:54.495Z,5.37
2023-02-21T08:21:45.751Z,6.00
2023-02-21T08:24:31.439Z,5.53
2023-02-21T08:27:17.499Z,5.03
2023-02-21T08:30:02.828Z,5.03
2023-02-21T08:32:48.685Z,5.53
2023-02-21T08:35:34.183Z,5.63
2023-02-21T08:38:20.038Z,5.37
2023-02-21T08:41:06.281Z,5.20
2023-02-21T08:43:52.117Z,5.90
2023-02-21T08:46:39.580Z,5.67
2023-02-21T08:49:24.964Z,5.90
2023-02-21T08:52:10.416Z,5.97
2023-02-21T08:54:56.324Z,5.93
2023-02-21T08:57:41.512Z,5.67
2023-02-21T09:00:30.338Z,5.60
2023-02-21T09:03:15.878Z,5.00
2023-02-21T09:06:03.494Z,5.13
2023-02-21T09:08:48.925Z,4.73
2023-02-21T09:11:34.506Z,4.13
2023-02-21T09:14:20.169Z,4.67
2023-02-21T09:17:08.079Z,4.00
2023-02-21T09:19:53.681Z,3.77
2023-02-21T09:22:39.141Z,3.57
2023-02-21T09:25:25.720Z,3.30
2023-02-21T09:28:11.083Z,3.53
2023-02-21T09:30:56.543Z,3.75
2023-02-21T09:33:41.852Z,3.70
2023-02-21T09:36:27.127Z,4.00
2023-02-21T09:39:12.826Z,3.78
2023-02-21T09:41:58.813Z,3.90
2023-02-21T09:44:45.655Z,3.22
2023-02-21T09:47:35.418Z,3.47
2023-02-21T09:50:27.855Z,3.40
2023-02-21T09:53:19.615Z,3.63
2023-02-21T09:56:11.581Z,3.72
2023-02-21T09:58:58.987Z,3.70
2023-02-21T10:02:06.164Z,3.38
2023-02-21T10:04:54.510Z,3.20
2023-02-21T10:07:52.421Z,3.42
2023-02-21T10:10:41.120Z,3.40
2023-02-21T10:13:42.685Z,3.35
2023-02-21T10:16:39.336Z,3.20
2023-02-21T10:19:37.949Z,3.58
2023-02-21T10:22:31.588Z,3.25
2023-02-21T10:25:20.887Z,3.10
2023-02-21T10:28:06.099Z,3.35
2023-02-21T10:31:05.318Z,2.90
2023-02-21T10:33:51.310Z,2.85
2023-02-21T10:36:36.817Z,3.25
2023-02-21T10:39:31.205Z,2.97
2023-02-21T10:42:42.365Z,2.72
2023-02-21T10:45:41.945Z,2.85
2023-02-21T10:48:32.713Z,2.55
2023-02-21T10:51:33.193Z,2.50
2023-02-21T10:54:22.972Z,2.42
2023-02-21T10:57:11.758Z,3.17
2023-02-21T10:59:57.376Z,2.40
2023-02-21T11:02:44.948Z,2.60
2023-02-21T11:05:30.477Z,2.88
2023-02-21T11:08:23.252Z,2.55
2023-02-21T11:11:08.728Z,2.83
2023-02-21T11:14:21.470Z,3.00
2023-02-21T11:17:14.774Z,2.90
2023-02-21T11:20:20.857Z,3.03
2023-02-21T11:23:36.043Z,3.70
2023-02-21T11:26:21.459Z,3.40
2023-02-21T11:29:13.837Z,3.22
2023-02-21T11:32:08.433Z,3.42
2023-02-21T11:35:20.866Z,3.90
2023-02-21T11:38:09.984Z,3.53
2023-02-21T11:40:55.892Z,3.78
2023-02-21T11:43:48.022Z,3.80
2023-02-21T11:46:48.852Z,4.00
2023-02-21T11:50:01.564Z,4.15
2023-02-21T11:53:06.407Z,3.90
2023-02-21T11:56:23.288Z,4.38
2023-02-21T11:59:19.542Z,4.30
2023-02-21T12:02:52.928Z,4.30
2023-02-21T12:05:38.586Z,4.30
2023-02-21T12:08:54.831Z,5.03
2023-02-21T12:12:09.373Z,4.63
2023-02-21T12:15:14.572Z,5.10
2023-02-21T12:18:19.293Z,5.47
2023-02-21T12:21:04.502Z,5.32
2023-02-21T12:24:19.324Z,5.60
2023-02-21T12:27:32.308Z,5.93
2023-02-21T12:30:27.524Z,6.78
2023-02-21T12:33:34.637Z,5.40
2023-02-21T12:37:04.605Z,5.85
2023-02-21T12:40:09.790Z,5.60
2023-02-21T12:43:33.899Z,5.55
2023-02-21T12:46:40.263Z,5.50
2023-02-21T12:49:51.129Z,5.25
2023-02-21T12:53:02.848Z,5.70
2023-02-21T12:55:55.652Z,4.88
2023-02-21T12:58:55.425Z,5.32
2023-02-21T13:01:55.553Z,5.43
2023-02-21T13:04:46.705Z,5.20
2023-02-21T13:07:51.052Z,4.90
2023-02-21T13:10:52.982Z,5.20
2023-02-21T13:13:38.431Z,5.00
2023-02-21T13:16:25.019Z,5.35
2023-02-21T13:19:13.901Z,5.00
2023-02-21T13:22:44.117Z,5.03
2023-02-21T13:25:50.773Z,5.28
2023-02-21T13:28:38.754Z,4.38
2023-02-21T13:31:37.168Z,5.00
2023-02-21T13:34:26.005Z,4.85
2023-02-21T13:37:22.836Z,5.07
2023-02-21T13:40:23.864Z,6.10
2023-02-21T13:43:27.590Z,4.80
2023-02-21T13:46:31.156Z,5.83
2023-02-21T13:49:50.651Z,5.60
2023-02-21T13:52:51.348Z,5.15
2023-02-21T13:55:37.854Z,6.32
2023-02-21T13:58:32.849Z,5.53
2023-02-21T14:01:28.938Z,6.20
2023-02-21T14:04:54.193Z,6.13
2023-02-21T14:08:02.892Z,5.68
2023-02-21T14:10:50.511Z,6.40
2023-02-21T14:13:54.561Z,5.82
2023-02-21T14:17:04.726Z,5.85
2023-02-21T14:19:51.745Z,5.80
2023-02-21T14:22:37.207Z,5.70
2023-02-21T14:25:26.038Z,5.90
2023-02-21T14:28:49.326Z,6.45
2023-02-21T14:32:02.247Z,6.13
2023-02-21T14:34:48.029Z,5.95
2023-02-21T14:37:33.298Z,5.97
2023-02-21T14:40:46.460Z,5.97
2023-02-21T14:43:50.335Z,6.22
2023-02-21T14:46:44.664Z,6.30
2023-02-21T14:52:56.039Z,6.90
2023-02-21T14:56:12.742Z,6.70
2023-02-21T14:59:27.195Z,6.07
2023-02-21T15:02:42.193Z,6.57
2023-02-21T15:05:53.214Z,5.50
2023-02-21T15:08:44.961Z,5.47
2023-02-21T15:11:35.142Z,5.65
2023-02-21T15:14:30.185Z,5.45
2023-02-21T15:20:17.233Z,5.40
2023-02-21T15:23:21.622Z,5.28
2023-02-21T15:26:22.313Z,5.70
2023-02-21T15:29:16.958Z,5.40
2023-02-21T15:32:03.782Z,4.70
2023-02-21T15:34:53.669Z,4.50
2023-02-21T15:37:42.757Z,4.60
2023-02-21T15:40:29.509Z,3.80
2023-02-21T15:43:31.085Z,3.38
2023-02-21T15:46:22.689Z,3.17
2023-02-21T15:49:14.425Z,4.10
2023-02-21T15:52:02.055Z,3.85
2023-02-21T15:54:47.848Z,3.90
2023-02-21T15:57:34.048Z,4.10
2023-02-21T16:00:23.036Z,4.15
2023-02-21T16:03:36.346Z,4.20
2023-02-21T16:06:28.245Z,4.50
2023-02-21T16:09:30.267Z,5.15
2023-02-21T16:12:18.442Z,5.07
2023-02-21T16:15:19.163Z,5.65
2023-02-21T16:18:08.282Z,5.85
2023-02-21T16:21:05.072Z,5.35
2023-02-21T16:23:50.745Z,5.60
2023-02-21T16:26:35.995Z,5.93
2023-02-21T16:29:21.492Z,5.32
2023-02-21T16:32:15.395Z,5.40
2023-02-21T16:35:00.492Z,6.53
2023-02-21T16:37:46.876Z,6.22
2023-02-21T16:40:35.038Z,5.35
2023-02-21T16:43:26.021Z,6.30
2023-02-21T16:46:13.699Z,5.70
2023-02-21T16:48:59.917Z,5.72
2023-02-21T16:51:45.730Z,5.85
2023-02-21T16:54:31.009Z,6.55
2023-02-21T16:57:16.677Z,8.65
2023-02-21T17:00:02.174Z,7.40
2023-02-21T17:02:52.760Z,9.90
2023-02-21T17:05:38.333Z,8.68
2023-02-21T17:08:25.786Z,6.70
2023-02-21T17:11:12.118Z,6.82
2023-02-21T17:17:10.316Z,5.82
2023-02-21T17:19:55.817Z,5.95
2023-02-21T17:22:41.127Z,6.07
2023-02-21T17:25:27.369Z,7.40
2023-02-21T17:28:12.620Z,7.40
2023-02-21T17:30:58.141Z,6.45
2023-02-21T17:33:43.948Z,6.70
2023-02-21T17:36:29.884Z,6.72
2023-02-21T17:39:20.181Z,6.68
2023-02-21T17:42:05.850Z,6.10
2023-02-21T17:44:52.084Z,6.32
2023-02-21T17:47:37.630Z,6.45
2023-02-21T17:50:23.708Z,6.68
2023-02-21T17:53:09.008Z,6.45
2023-02-21T17:55:59.797Z,6.85
2023-02-21T17:58:45.172Z,7.43
2023-02-21T18:01:31.291Z,6.93
2023-02-21T18:04:16.733Z,7.72
2023-02-21T18:07:02.165Z,7.30
2023-02-21T18:09:47.706Z,8.50
2023-02-21T18:12:33.591Z,7.32
2023-02-21T18:15:24.798Z,7.95
2023-02-21T18:18:10.581Z,8.02
2023-02-21T18:20:57.182Z,8.25
2023-02-21T18:23:44.580Z,7.93
2023-02-21T18:26:30.052Z,8.80
2023-02-21T18:29:16.374Z,7.18
2023-02-21T18:32:01.619Z,8.05
2023-02-21T18:34:47.099Z,7.53
2023-02-21T18:37:32.611Z,8.13
2023-02-21T18:40:19.271Z,8.30
2023-02-21T18:43:08.437Z,7.07
2023-02-21T18:45:55.026Z,7.65
2023-02-21T18:48:45.740Z,7.00
2023-02-21T18:51:35.757Z,8.32
2023-02-21T18:54:21.238Z,7.43
2023-02-21T18:57:06.567Z,8.20
2023-02-21T18:59:52.177Z,8.10
2023-02-21T19:02:37.720Z,8.45
2023-02-21T19:05:24.453Z,7.82
2023-02-21T19:08:10.080Z,8.48
2023-02-21T19:10:55.563Z,8.20
2023-02-21T19:13:41.413Z,7.80
2023-02-21T19:16:26.938Z,7.82
2023-02-21T19:19:12.536Z,9.25
2023-02-21T19:21:59.602Z,8.40
2023-02-21T19:24:44.887Z,8.70
2023-02-21T19:27:30.341Z,8.38
2023-02-21T19:30:19.433Z,8.45
2023-02-21T19:33:07.340Z,8.45
2023-02-21T19:35:52.763Z,8.68
2023-02-21T19:38:38.573Z,8.38
2023-02-21T19:41:23.808Z,8.77
2023-02-21T19:44:09.543Z,9.10
2023-02-21T19:46:54.972Z,9.60
2023-02-21T19:49:40.852Z,8.40
2023-02-21T19:52:26.601Z,8.23
2023-02-21T19:55:12.119Z,9.10
2023-02-21T19:57:57.806Z,8.90
2023-02-21T20:00:44.048Z,9.10
2023-02-21T20:03:29.785Z,9.00
2023-02-21T20:06:16.744Z,10.90
2023-02-21T20:09:07.056Z,9.80
2023-02-21T20:11:52.356Z,9.40
2023-02-21T20:14:37.975Z,9.48
2023-02-21T20:17:23.713Z,10.48
2023-02-21T20:20:11.746Z,10.40
2023-02-21T20:22:58.273Z,10.18
2023-02-21T20:25:43.694Z,9.82
2023-02-21T20:28:29.292Z,9.20
2023-02-21T20:31:15.916Z,9.30
2023-02-21T20:34:03.031Z,10.23
2023-02-21T20:36:48.584Z,10.05
2023-02-21T20:39:34.991Z,11.10
2023-02-21T20:42:22.825Z,9.48
2023-02-21T20:45:10.894Z,10.05
2023-02-21T20:47:56.303Z,9.88
2023-02-21T20:50:41.850Z,11.20
2023-02-21T20:53:27.984Z,10.65
2023-02-21T20:56:14.019Z,10.90
2023-02-21T20:58:59.267Z,10.40
2023-02-21T21:01:49.400Z,10.10
2023-02-21T21:04:37.422Z,11.03
2023-02-21T21:07:24.471Z,10.00
2023-02-21T21:10:14.461Z,10.60
2023-02-21T21:12:59.804Z,10.15
2023-02-21T21:15:45.528Z,10.13
2023-02-21T21:18:31.356Z,11.00
2023-02-21T21:21:16.955Z,10.43
2023-02-21T21:24:02.520Z,10.20
2023-02-21T21:26:53.176Z,10.27
2023-02-21T21:29:42.441Z,11.13
2023-02-21T21:32:28.387Z,11.07
2023-02-21T21:35:17.171Z,9.63
2023-02-21T21:38:03.627Z,9.82
2023-02-21T21:40:49.258Z,9.68
2023-02-21T21:43:34.730Z,10.00
2023-02-21T21:46:20.371Z,9.50
2023-02-21T21:49:06.418Z,9.23
2023-02-21T21:51:51.617Z,10.00
2023-02-21T21:54:37.781Z,9.30
2023-02-21T21:57:27.097Z,10.70
2023-02-21T22:00:21.543Z,11.83
2023-02-21T22:03:09.360Z,9.98
2023-02-21T22:05:56.261Z,9.77
2023-02-21T22:08:41.646Z,9.90
2023-02-21T22:11:27.769Z,11.40
2023-02-21T22:14:14.508Z,10.00
2023-02-21T22:17:00.340Z,9.17
2023-02-21T22:19:46.407Z,9.87
2023-02-21T22:22:32.331Z,9.87
2023-02-21T22:25:20.112Z,9.13
2023-02-21T22:28:13.093Z,9.67
2023-02-21T22:30:58.910Z,10.20
2023-02-21T22:33:46.177Z,10.50
2023-02-21T22:36:32.845Z,10.77
2023-02-21T22:39:19.982Z,10.07
2023-02-21T22:42:08.768Z,10.47
2023-02-21T22:44:54.245Z,9.90
2023-02-21T22:47:40.242Z,9.97
2023-02-21T22:50:26.460Z,10.30
2023-02-21T22:53:14.590Z,9.87
2023-02-21T22:56:02.720Z,9.43
2023-02-21T22:58:48.599Z,9.87
2023-02-21T23:01:34.556Z,10.63
2023-02-21T23:04:26.733Z,10.37
2023-02-21T23:07:12.392Z,10.23
2023-02-21T23:09:57.880Z,9.97
2023-02-21T23:12:45.437Z,10.70
2023-02-21T23:15:30.732Z,11.67
2023-02-21T23:18:20.658Z,11.63
2023-02-21T23:21:06.436Z,10.77
2023-02-21T23:23:51.688Z,10.97
2023-02-21T23:26:44.062Z,10.67
2023-02-21T23:29:29.820Z,9.70
2023-02-21T23:32:15.165Z,10.63
2023-02-21T23:35:00.539Z,11.07
2023-02-21T23:37:47.155Z,11.47
2023-02-21T23:40:32.669Z,12.37
2023-02-21T23:43:18.627Z,10.07
2023-02-21T23:46:06.899Z,10.80
2023-02-21T23:48:53.800Z,10.80
2023-02-21T23:51:43.621Z,11.90
2023-02-21T23:54:29.015Z,10.87
2023-02-21T23:57:14.974Z,10.97
